Time,TemperatureF,DewpointF,PressureIn,WindDirection,WindDirectionDegrees,WindSpeedMPH,WindSpeedGustMPH,Humidity,HourlyPrecipIn,Conditions,Clouds,dailyrainin,SoftwareType,DateUTC
2013-03-04 00:01:00,53.8,39.8,29.86,SSW,198,29.9,29.9,59,0.00,OVC,,0.00,WeatherDisplay:10.37,2013-03-04 08:01:00,
2013-03-04 00:06:00,53.8,39.4,29.86,SSW,198,33.4,33.4,58,0.00,OVC,,0.00,WeatherDisplay:10.37,2013-03-04 08:06:00,
2013-03-04 00:11:00,53.8,39.8,29.85,SSW,205,28.8,28.8,59,0.00,OVC,,0.00,WeatherDisplay:10.37,2013-03-04 08:11:00,
2013-03-04 00:17:00,53.5,39.5,29.86,SSW,199,28.8,28.8,59,0.00,OVC,,0.00,WeatherDisplay:10.37,2013-03-04 08:17:00,
2013-03-04 00:22:00,53.3,39.3,29.86,SSW,192,22.0,22.0,59,0.00,OVC,,0.00,WeatherDisplay:10.37,2013-03-04 08:22:00,
2013-03-04 00:27:00,53.2,39.2,29.87,SSW,208,19.6,19.6,59,0.00,OVC,,0.00,WeatherDisplay:10.37,2013-03-04 08:27:00,
2013-03-04 00:32:00,53.3,39.3,29.87,SSW,196,21.9,21.9,59,0.00,OVC,,0.00,WeatherDisplay:10.37,2013-03-04 08:32:00,
2013-03-04 00:37:00,53.6,39.6,29.86,SW,223,26.5,26.5,59,0.00,OVC,,0.00,WeatherDisplay:10.37,2013-03-04 08:37:00,
2013-03-04 00:42:00,53.9,39.5,29.87,SW,218,27.6,27.6,58,0.00,OVC,,0.00,WeatherDisplay:10.37,2013-03-04 08:42:00,
2013-03-04 00:47:00,53.7,39.2,29.87,SW,219,21.0,26.0,58,0.00,CLR,,0.00,WeatherDisplay:10.37,2013-03-04 08:47:00,
2013-03-04 00:52:00,53.3,39.3,29.87,SW,222,22.0,29.0,59,0.00,CLR,,0.00,WeatherDisplay:10.37,2013-03-04 08:52:00,
2013-03-04 00:57:00,53.2,39.2,29.88,SW,215,16.0,23.0,59,0.00,CLR,,0.00,WeatherDisplay:10.37,2013-03-04 08:57:00,
2013-03-04 01:02:00,53.4,39.4,29.88,SSW,208,21.0,23.0,59,0.00,CLR,,0.00,WeatherDisplay:10.37,2013-03-04 09:02:00,
2013-03-04 01:07:00,53.1,39.1,29.88,SSW,200,18.0,24.0,59,0.00,CLR,,0.00,WeatherDisplay:10.37,2013-03-04 09:07:00,
2013-03-04 01:12:00,52.9,39.4,29.88,SSW,204,21.0,25.0,60,0.00,CLR,,0.00,WeatherDisplay:10.37,2013-03-04 09:12:00,
2013-03-04 01:17:00,52.8,38.9,29.88,SSW,209,14.0,24.0,59,0.00,CLR,,0.00,WeatherDisplay:10.37,2013-03-04 09:17:00,
2013-03-04 01:22:00,53.4,39.4,29.88,SSW,197,18.0,26.0,59,0.00,CLR,,0.00,WeatherDisplay:10.37,2013-03-04 09:22:00,
2013-03-04 01:27:00,52.0,39.0,29.88,South,189,14.0,17.0,61,0.00,CLR,,0.00,WeatherDisplay:10.37,2013-03-04 09:27:00,
2013-03-04 01:32:00,51.8,39.6,29.88,South,187,16.0,22.0,63,0.00,CLR,,0.00,WeatherDisplay:10.37,2013-03-04 09:32:00,
2013-03-04 01:37:00,52.2,39.6,29.88,South,189,16.0,20.0,62,0.00,CLR,,0.00,WeatherDisplay:10.37,2013-03-04 09:37:00,
2013-03-04 01:42:00,51.8,40.0,29.89,South,184,19.6,19.6,64,0.00,OVC,,0.00,WeatherDisplay:10.37,2013-03-04 09:42:00,
2013-03-04 01:47:00,51.2,39.9,29.89,South,189,12.0,21.0,65,0.00,CLR,,0.00,WeatherDisplay:10.37,2013-03-04 09:47:00,
2013-03-04 01:52:00,50.8,40.2,29.89,South,185,15.0,20.0,67,0.00,CLR,,0.00,WeatherDisplay:10.37,2013-03-04 09:52:00,
2013-03-04 01:57:00,51.0,40.8,29.89,South,185,14.0,25.0,68,0.00,CLR,,0.00,WeatherDisplay:10.37,2013-03-04 09:57:00,
2013-03-04 02:02:00,51.0,40.8,29.89,South,186,10.0,22.0,68,0.00,CLR,,0.00,WeatherDisplay:10.37,2013-03-04 10:02:00,
2013-03-04 02:07:00,50.6,40.4,29.89,South,188,10.0,13.0,68,0.00,CLR,,0.00,WeatherDisplay:10.37,2013-03-04 10:07:00,
2013-03-04 02:12:00,50.6,40.4,29.89,South,183,10.0,15.0,68,0.00,CLR,,0.00,WeatherDisplay:10.37,2013-03-04 10:12:00,
2013-03-04 02:17:00,50.6,40.5,29.89,South,179,7.0,14.0,68,0.00,CLR,,0.00,WeatherDisplay:10.37,2013-03-04 10:17:00,
2013-03-04 02:22:00,50.6,40.4,29.89,South,189,7.0,14.0,68,0.00,CLR,,0.00,WeatherDisplay:10.37,2013-03-04 10:22:00,
2013-03-04 02:27:00,51.0,40.4,29.89,South,188,14.0,17.0,67,0.00,CLR,,0.00,WeatherDisplay:10.37,2013-03-04 10:27:00,
2013-03-04 02:32:00,50.3,39.8,29.89,South,183,8.0,17.0,67,0.00,CLR,,0.00,WeatherDisplay:10.37,2013-03-04 10:32:00,
2013-03-04 02:37:00,49.7,39.6,29.89,SW,220,2.0,7.0,68,0.00,CLR,,0.00,WeatherDisplay:10.37,2013-03-04 10:37:00,
2013-03-04 02:42:00,50.2,40.0,29.89,West,277,13.0,18.0,68,0.00,CLR,,0.00,WeatherDisplay:10.37,2013-03-04 10:42:00,
2013-03-04 02:47:00,52.7,40.4,29.89,SW,214,8.0,17.0,63,0.00,CLR,,0.00,WeatherDisplay:10.37,2013-03-04 10:47:00,
2013-03-04 02:52:00,52.2,40.4,29.89,SSW,205,6.0,10.0,64,0.00,CLR,,0.00,WeatherDisplay:10.37,2013-03-04 10:52:00,
2013-03-04 02:57:00,51.6,39.9,29.89,SW,230,3.0,5.0,64,0.00,CLR,,0.00,WeatherDisplay:10.37,2013-03-04 10:57:00,
2013-03-04 03:02:00,51.1,39.8,29.89,West,269,5.0,7.0,65,0.00,CLR,,0.00,WeatherDisplay:10.37,2013-03-04 11:02:00,
2013-03-04 03:07:00,50.8,39.8,29.90,WSW,246,5.0,5.0,66,0.00,OVC,,0.00,WeatherDisplay:10.37,2013-03-04 11:07:00,
2013-03-04 03:12:00,50.5,39.6,29.90,SW,225,12.7,12.7,66,0.00,OVC,,0.00,WeatherDisplay:10.37,2013-03-04 11:12:00,
2013-03-04 03:18:00,50.8,39.5,29.90,WSW,250,8.1,8.1,65,0.00,OVC,,0.00,WeatherDisplay:10.37,2013-03-04 11:18:00,
2013-03-04 03:23:00,50.5,39.6,29.90,WSW,238,9.2,9.2,66,0.00,OVC,,0.00,WeatherDisplay:10.37,2013-03-04 11:23:00,
2013-03-04 03:28:00,49.6,39.1,29.90,SW,228,8.0,8.0,67,0.00,OVC,,0.00,WeatherDisplay:10.37,2013-03-04 11:28:00,
2013-03-04 03:33:00,49.2,39.5,29.90,WSW,238,8.1,8.1,69,0.00,OVC,,0.00,WeatherDisplay:10.37,2013-03-04 11:33:00,
2013-03-04 03:38:00,49.4,39.3,29.90,WSW,239,4.6,4.6,68,0.00,OVC,,0.00,WeatherDisplay:10.37,2013-03-04 11:38:00,
2013-03-04 03:43:00,48.8,39.1,29.90,West,278,3.5,3.5,69,0.00,OVC,,0.00,WeatherDisplay:10.37,2013-03-04 11:43:00,
2013-03-04 03:48:00,48.5,38.8,29.90,West,278,3.5,3.5,69,0.00,OVC,,0.00,WeatherDisplay:10.37,2013-03-04 11:48:00,
2013-03-04 03:53:00,47.7,38.4,29.90,SSW,206,9.2,9.2,70,0.00,OVC,,0.00,WeatherDisplay:10.37,2013-03-04 11:53:00,
2013-03-04 03:58:00,46.9,38.3,29.90,WSW,240,9.2,9.2,72,0.00,OVC,,0.00,WeatherDisplay:10.37,2013-03-04 11:58:00,
2013-03-04 04:04:00,46.8,37.2,29.91,WNW,282,3.5,3.5,69,0.00,OVC,,0.00,WeatherDisplay:10.37,2013-03-04 12:04:00,
2013-03-04 04:09:00,45.7,36.8,29.91,SW,221,5.0,5.0,71,0.00,OVC,,0.00,WeatherDisplay:10.37,2013-03-04 12:09:00,
2013-03-04 04:14:00,45.5,37.7,29.91,SW,224,9.0,9.0,74,0.00,OVC,,0.00,WeatherDisplay:10.37,2013-03-04 12:14:00,
2013-03-04 04:19:00,46.7,38.1,29.90,WSW,242,10.4,10.4,72,0.00,OVC,,0.00,WeatherDisplay:10.37,2013-03-04 12:19:00,
2013-03-04 04:24:00,46.5,37.2,29.91,WSW,256,7.0,7.0,70,0.00,OVC,,0.00,WeatherDisplay:10.37,2013-03-04 12:24:00,
2013-03-04 04:29:00,46.0,37.1,29.91,SW,223,6.0,6.0,71,0.00,OVC,,0.00,WeatherDisplay:10.37,2013-03-04 12:29:00,
2013-03-04 04:34:00,47.3,38.4,29.91,SSW,202,11.5,11.5,71,0.00,OVC,,0.00,WeatherDisplay:10.37,2013-03-04 12:34:00,
2013-03-04 04:39:00,47.9,38.9,29.90,SW,229,14.0,14.0,71,0.00,OVC,,0.00,WeatherDisplay:10.37,2013-03-04 12:39:00,
2013-03-04 04:44:00,47.6,39.4,29.91,West,269,11.5,11.5,73,0.00,OVC,,0.00,WeatherDisplay:10.37,2013-03-04 12:44:00,
2013-03-04 04:49:00,47.0,38.8,29.91,SW,224,12.7,12.7,73,0.00,OVC,,0.00,WeatherDisplay:10.37,2013-03-04 12:49:00,
2013-03-04 04:54:00,47.6,39.4,29.91,SW,227,9.2,9.2,73,0.00,OVC,,0.00,WeatherDisplay:10.37,2013-03-04 12:54:00,
2013-03-04 04:59:00,47.8,39.6,29.91,WSW,247,9.0,9.0,73,0.00,OVC,,0.00,WeatherDisplay:10.37,2013-03-04 12:59:00,
2013-03-04 05:04:00,48.0,40.1,29.92,SW,234,10.4,10.4,74,0.00,OVC,,0.00,WeatherDisplay:10.37,2013-03-04 13:04:00,
2013-03-04 05:09:00,48.2,39.9,29.92,WSW,248,11.5,11.5,73,0.00,OVC,,0.00,WeatherDisplay:10.37,2013-03-04 13:09:00,
2013-03-04 05:14:00,48.3,40.4,29.92,SW,232,13.0,13.0,74,0.00,OVC,,0.00,WeatherDisplay:10.37,2013-03-04 13:14:00,
2013-03-04 05:19:00,47.9,40.0,29.92,SW,223,15.0,15.0,74,0.00,OVC,,0.00,WeatherDisplay:10.37,2013-03-04 13:19:00,
2013-03-04 05:25:00,48.3,40.0,29.92,West,259,11.5,11.5,73,0.00,OVC,,0.00,WeatherDisplay:10.37,2013-03-04 13:25:00,
2013-03-04 05:30:00,47.7,39.5,29.93,WNW,287,7.0,7.0,73,0.00,OVC,,0.00,WeatherDisplay:10.37,2013-03-04 13:30:00,
2013-03-04 05:35:00,47.1,39.2,29.93,West,271,11.0,11.0,74,0.00,OVC,,0.00,WeatherDisplay:10.37,2013-03-04 13:35:00,
2013-03-04 05:40:00,47.5,39.6,29.92,WSW,248,14.0,14.0,74,0.00,OVC,,0.00,WeatherDisplay:10.37,2013-03-04 13:40:00,
2013-03-04 05:45:00,47.6,39.7,29.92,West,273,12.7,12.7,74,0.00,OVC,,0.00,WeatherDisplay:10.37,2013-03-04 13:45:00,
2013-03-04 05:50:00,47.9,40.0,29.92,West,274,11.5,11.5,74,0.00,OVC,,0.00,WeatherDisplay:10.37,2013-03-04 13:50:00,
2013-03-04 05:55:00,47.8,39.9,29.93,WSW,244,6.9,6.9,74,0.00,OVC,,0.00,WeatherDisplay:10.37,2013-03-04 13:55:00,
2013-03-04 06:00:00,48.3,40.4,29.93,SW,219,3.5,3.5,74,0.00,OVC,,0.00,WeatherDisplay:10.37,2013-03-04 14:00:00,
2013-03-04 06:05:00,46.6,38.8,29.93,SSW,194,6.9,6.9,74,0.00,OVC,,0.00,WeatherDisplay:10.37,2013-03-04 14:05:00,
2013-03-04 06:10:00,46.0,39.2,29.92,SW,221,6.9,6.9,77,0.00,OVC,,0.00,WeatherDisplay:10.37,2013-03-04 14:10:00,
2013-03-04 06:15:00,46.5,40.0,29.93,NNW,328,8.1,8.1,78,0.00,OVC,,0.00,WeatherDisplay:10.37,2013-03-04 14:15:00,
2013-03-04 06:20:00,46.9,39.7,29.93,North,11,6.9,6.9,76,0.00,OVC,,0.00,WeatherDisplay:10.37,2013-03-04 14:20:00,
2013-03-04 06:25:00,47.4,40.6,29.94,ESE,119,10.0,10.0,77,0.00,OVC,,0.00,WeatherDisplay:10.37,2013-03-04 14:25:00,
2013-03-04 06:30:00,47.8,40.3,29.94,South,187,7.0,7.0,75,0.00,OVC,,0.00,WeatherDisplay:10.37,2013-03-04 14:30:00,
2013-03-04 06:35:00,47.1,39.9,29.94,South,183,11.0,11.0,76,0.00,OVC,,0.00,WeatherDisplay:10.37,2013-03-04 14:35:00,
2013-03-04 06:40:00,46.9,39.7,29.94,SW,220,11.0,11.0,76,0.00,OVC,,0.00,WeatherDisplay:10.37,2013-03-04 14:40:00,
2013-03-04 06:45:00,48.3,40.4,29.93,WSW,246,13.0,13.0,74,0.00,OVC,,0.00,WeatherDisplay:10.37,2013-03-04 14:45:00,
2013-03-04 06:50:00,48.3,40.0,29.93,WSW,248,13.0,13.0,73,0.00,OVC,,0.00,WeatherDisplay:10.37,2013-03-04 14:50:00,
2013-03-04 06:55:00,47.9,39.7,29.94,SSW,209,11.5,11.5,73,0.00,OVC,,0.00,WeatherDisplay:10.37,2013-03-04 14:55:00,
2013-03-04 07:01:00,47.8,39.9,29.94,SW,217,14.0,14.0,74,0.00,OVC,,0.00,WeatherDisplay:10.37,2013-03-04 15:01:00,
2013-03-04 07:06:00,47.8,40.3,29.94,SSW,213,14.0,14.0,75,0.00,OVC,,0.00,WeatherDisplay:10.37,2013-03-04 15:06:00,
2013-03-04 07:11:00,47.9,40.4,29.94,SW,217,12.7,12.7,75,0.00,OVC,,0.00,WeatherDisplay:10.37,2013-03-04 15:11:00,
2013-03-04 07:16:00,48.3,40.7,29.95,WSW,240,12.7,12.7,75,0.00,OVC,,0.00,WeatherDisplay:10.37,2013-03-04 15:16:00,
2013-03-04 07:21:00,48.8,41.2,29.95,SW,227,11.5,11.5,75,0.00,OVC,,0.00,WeatherDisplay:10.37,2013-03-04 15:21:00,
2013-03-04 07:26:00,49.4,41.5,29.96,SSW,200,11.0,11.0,74,0.00,OVC,,0.00,WeatherDisplay:10.37,2013-03-04 15:26:00,
2013-03-04 07:32:00,50.6,41.9,29.96,South,191,18.4,18.4,72,0.00,OVC,,0.00,WeatherDisplay:10.37,2013-03-04 15:32:00,
2013-03-04 07:37:00,51.2,41.7,29.96,SSW,202,19.6,19.6,70,0.00,OVC,,0.00,WeatherDisplay:10.37,2013-03-04 15:37:00,
2013-03-04 07:42:00,51.7,41.9,29.96,SSW,212,17.3,17.3,69,0.00,OVC,,0.00,WeatherDisplay:10.37,2013-03-04 15:42:00,
2013-03-04 07:47:00,52.4,42.1,29.96,South,191,17.0,17.0,68,0.00,OVC,,0.00,WeatherDisplay:10.37,2013-03-04 15:47:00,
2013-03-04 07:52:00,52.7,41.7,29.96,SSW,200,13.0,17.0,66,0.00,CLR,,0.00,WeatherDisplay:10.37,2013-03-04 15:52:00,
2013-03-04 07:57:00,53.0,41.5,29.97,SSW,201,13.0,15.0,65,0.00,CLR,,0.00,WeatherDisplay:10.37,2013-03-04 15:57:00,
2013-03-04 08:02:00,53.8,41.5,29.97,SSW,206,12.0,14.0,63,0.00,CLR,,0.00,WeatherDisplay:10.37,2013-03-04 16:02:00,
2013-03-04 08:07:00,54.2,41.9,29.97,SSW,206,10.0,14.0,63,0.00,CLR,,0.00,WeatherDisplay:10.37,2013-03-04 16:07:00,
2013-03-04 08:12:00,54.5,41.3,29.97,SSW,209,9.0,13.0,61,0.00,CLR,,0.00,WeatherDisplay:10.37,2013-03-04 16:12:00,
2013-03-04 08:17:00,54.9,41.7,29.97,SSW,206,10.0,12.0,61,0.00,CLR,,0.00,WeatherDisplay:10.37,2013-03-04 16:17:00,
2013-03-04 08:22:00,55.5,40.9,29.96,SSW,207,9.0,12.0,58,0.00,CLR,,0.00,WeatherDisplay:10.37,2013-03-04 16:22:00,
2013-03-04 08:27:00,56.1,40.6,29.96,SSW,209,12.0,14.0,56,0.00,CLR,,0.00,WeatherDisplay:10.37,2013-03-04 16:27:00,
2013-03-04 08:32:00,56.2,40.7,29.97,SW,217,9.0,12.0,56,0.00,CLR,,0.00,WeatherDisplay:10.37,2013-03-04 16:32:00,
2013-03-04 08:37:00,56.5,41.0,29.97,SW,217,7.0,13.0,56,0.00,CLR,,0.00,WeatherDisplay:10.37,2013-03-04 16:37:00,
2013-03-04 08:42:00,56.7,40.7,29.97,SSW,200,8.0,12.0,55,0.00,CLR,,0.00,WeatherDisplay:10.37,2013-03-04 16:42:00,
2013-03-04 08:47:00,57.5,40.5,29.97,SSW,198,6.0,8.0,53,0.00,CLR,,0.00,WeatherDisplay:10.37,2013-03-04 16:47:00,
2013-03-04 08:52:00,57.8,40.3,29.97,SSW,197,6.0,12.0,52,0.00,CLR,,0.00,WeatherDisplay:10.37,2013-03-04 16:52:00,
2013-03-04 08:57:00,58.1,40.0,29.97,SSW,198,7.0,12.0,51,0.00,CLR,,0.00,WeatherDisplay:10.37,2013-03-04 16:57:00,
2013-03-04 09:02:00,58.3,39.7,29.97,SSW,196,7.0,12.0,50,0.00,CLR,,0.00,WeatherDisplay:10.37,2013-03-04 17:02:00,
2013-03-04 09:07:00,58.3,40.2,29.97,SSW,204,6.0,12.0,51,0.00,CLR,,0.00,WeatherDisplay:10.37,2013-03-04 17:07:00,
2013-03-04 09:12:00,58.3,39.7,29.97,SSW,197,6.0,10.0,50,0.00,CLR,,0.00,WeatherDisplay:10.37,2013-03-04 17:12:00,
2013-03-04 09:17:00,58.6,39.5,29.97,SSW,212,7.0,12.0,49,0.00,CLR,,0.00,WeatherDisplay:10.37,2013-03-04 17:17:00,
2013-03-04 09:22:00,58.8,39.1,29.97,SSW,210,5.0,7.0,48,0.00,CLR,,0.00,WeatherDisplay:10.37,2013-03-04 17:22:00,
2013-03-04 09:27:00,59.3,39.1,29.97,SSW,197,5.0,6.0,47,0.00,CLR,,0.00,WeatherDisplay:10.37,2013-03-04 17:27:00,
2013-03-04 09:32:00,59.8,39.5,29.96,South,170,3.0,7.0,47,0.00,CLR,,0.00,WeatherDisplay:10.37,2013-03-04 17:32:00,
2013-03-04 09:37:00,60.2,38.8,29.96,SSE,164,1.0,5.0,45,0.00,CLR,,0.00,WeatherDisplay:10.37,2013-03-04 17:37:00,
2013-03-04 09:42:00,60.9,39.4,29.96,SSE,157,3.0,4.0,45,0.00,CLR,,0.00,WeatherDisplay:10.37,2013-03-04 17:42:00,
2013-03-04 09:47:00,60.6,38.6,29.97,SSE,159,5.0,7.0,44,0.00,CLR,,0.00,WeatherDisplay:10.37,2013-03-04 17:47:00,
2013-03-04 09:52:00,61.1,39.0,29.97,SSE,162,5.0,9.0,44,0.00,CLR,,0.00,WeatherDisplay:10.37,2013-03-04 17:52:00,
2013-03-04 09:58:00,61.5,38.8,29.97,NW,309,4.0,4.0,43,0.00,OVC,,0.00,WeatherDisplay:10.37,2013-03-04 17:58:00,
2013-03-04 10:03:00,61.9,37.3,29.97,West,270,3.5,3.5,40,0.00,OVC,,0.00,WeatherDisplay:10.37,2013-03-04 18:03:00,
2013-03-04 10:08:00,62.6,38.6,29.97,SSW,202,6.9,6.9,41,0.00,OVC,,0.00,WeatherDisplay:10.37,2013-03-04 18:08:00,
2013-03-04 10:13:00,61.9,36.7,29.97,South,172,3.5,3.5,39,0.00,OVC,,0.00,WeatherDisplay:10.37,2013-03-04 18:13:00,
2013-03-04 10:18:00,62.9,36.2,29.97,NW,306,11.5,11.5,37,0.00,OVC,,0.00,WeatherDisplay:10.37,2013-03-04 18:18:00,
2013-03-04 10:23:00,63.6,36.1,29.97,NNW,329,5.8,5.8,36,0.00,OVC,,0.00,WeatherDisplay:10.37,2013-03-04 18:23:00,
2013-03-04 10:29:00,63.9,36.4,29.97,North,5,8.1,8.1,36,0.00,OVC,,0.00,WeatherDisplay:10.37,2013-03-04 18:29:00,
2013-03-04 10:30:00,64.2,37.4,29.97,NE,35,14.0,14.0,37,0.00,OVC,,0.00,WeatherDisplay:10.37,2013-03-04 18:30:00,
2013-03-04 10:36:00,64.9,35.8,29.97,NE,47,6.9,6.9,34,0.00,OVC,,0.00,WeatherDisplay:10.37,2013-03-04 18:36:00,
2013-03-04 10:41:00,65.6,34.9,29.97,NNW,347,6.9,6.9,32,0.00,OVC,,0.00,WeatherDisplay:10.37,2013-03-04 18:41:00,
2013-03-04 10:46:00,64.9,34.3,29.96,NW,304,9.2,9.2,32,0.00,OVC,,0.00,WeatherDisplay:10.37,2013-03-04 18:46:00,
2013-03-04 10:51:00,65.6,34.1,29.97,NNE,28,12.7,12.7,31,0.00,OVC,,0.00,WeatherDisplay:10.37,2013-03-04 18:51:00,
2013-03-04 10:56:00,66.6,34.2,29.97,NNE,17,6.9,6.9,30,0.00,OVC,,0.00,WeatherDisplay:10.37,2013-03-04 18:56:00,
2013-03-04 11:01:00,66.7,33.4,29.96,NNE,29,11.5,11.5,29,0.00,OVC,,0.00,WeatherDisplay:10.37,2013-03-04 19:01:00,
2013-03-04 11:06:00,66.5,33.2,29.96,ENE,59,9.2,9.2,29,0.00,OVC,,0.00,WeatherDisplay:10.37,2013-03-04 19:06:00,
2013-03-04 11:12:00,67.0,33.7,29.96,North,5,12.7,12.7,29,0.00,OVC,,0.00,WeatherDisplay:10.37,2013-03-04 19:12:00,
2013-03-04 11:17:00,67.2,33.0,29.96,NNE,15,5.8,5.8,28,0.00,OVC,,0.00,WeatherDisplay:10.37,2013-03-04 19:17:00,
2013-03-04 11:22:00,67.5,33.2,29.96,NNE,15,11.5,11.5,28,0.00,OVC,,0.00,WeatherDisplay:10.37,2013-03-04 19:22:00,
2013-03-04 11:27:00,67.3,33.1,29.96,NNE,26,7.0,7.0,28,0.00,OVC,,0.00,WeatherDisplay:10.37,2013-03-04 19:27:00,
2013-03-04 11:32:00,67.6,33.3,29.96,NW,315,5.0,5.0,28,0.00,OVC,,0.00,WeatherDisplay:10.37,2013-03-04 19:32:00,
2013-03-04 11:37:00,67.3,33.1,29.95,ENE,64,9.0,9.0,28,0.00,OVC,,0.00,WeatherDisplay:10.37,2013-03-04 19:37:00,
2013-03-04 11:42:00,66.4,32.2,29.95,North,5,6.0,12.0,28,0.00,CLR,,0.00,WeatherDisplay:10.37,2013-03-04 19:42:00,
2013-03-04 11:47:00,66.4,33.2,29.95,NNW,331,3.0,8.0,29,0.00,CLR,,0.00,WeatherDisplay:10.37,2013-03-04 19:47:00,
2013-03-04 11:52:00,67.4,33.1,29.95,NNW,339,6.0,8.0,28,0.00,CLR,,0.00,WeatherDisplay:10.37,2013-03-04 19:52:00,
2013-03-04 11:57:00,67.7,33.4,29.95,North,358,3.0,10.0,28,0.00,CLR,,0.00,WeatherDisplay:10.37,2013-03-04 19:57:00,
2013-03-04 12:02:00,69.0,33.6,29.95,NNE,12,6.0,10.0,27,0.00,CLR,,0.00,WeatherDisplay:10.37,2013-03-04 20:02:00,
2013-03-04 12:07:00,69.1,32.7,29.95,NNE,16,6.0,12.0,26,0.00,CLR,,0.00,WeatherDisplay:10.37,2013-03-04 20:07:00,
2013-03-04 12:12:00,69.7,33.3,29.94,NNE,15,3.0,9.0,26,0.00,CLR,,0.00,WeatherDisplay:10.37,2013-03-04 20:12:00,
2013-03-04 12:17:00,70.1,33.6,29.94,NNW,339,3.5,3.5,26,0.00,OVC,,0.00,WeatherDisplay:10.37,2013-03-04 20:17:00,
2013-03-04 12:22:00,70.0,33.5,29.94,WNW,290,4.6,4.6,26,0.00,OVC,,0.00,WeatherDisplay:10.37,2013-03-04 20:22:00,
2013-03-04 12:27:00,69.3,33.9,29.94,WNW,290,1.1,1.1,27,0.00,OVC,,0.00,WeatherDisplay:10.37,2013-03-04 20:27:00,
2013-03-04 12:33:00,69.5,34.0,29.94,ENE,64,12.7,12.7,27,0.00,OVC,,0.00,WeatherDisplay:10.37,2013-03-04 20:33:00,
2013-03-04 12:38:00,67.8,34.4,29.94,ENE,78,11.5,11.5,29,0.00,OVC,,0.00,WeatherDisplay:10.37,2013-03-04 20:38:00,
2013-03-04 12:43:00,66.7,34.3,29.94,East,94,11.5,11.5,30,0.00,OVC,,0.00,WeatherDisplay:10.37,2013-03-04 20:43:00,
2013-03-04 12:48:00,66.0,34.5,29.94,SSE,158,5.8,5.8,31,0.00,OVC,,0.00,WeatherDisplay:10.37,2013-03-04 20:48:00,
2013-03-04 12:53:00,66.5,34.1,29.93,SSE,157,5.0,5.0,30,0.00,OVC,,0.00,WeatherDisplay:10.37,2013-03-04 20:53:00,
2013-03-04 12:58:00,66.8,33.5,29.93,ESE,117,12.7,12.7,29,0.00,OVC,,0.00,WeatherDisplay:10.37,2013-03-04 20:58:00,
2013-03-04 13:03:00,66.5,34.1,29.93,East,86,8.1,8.1,30,0.00,OVC,,0.00,WeatherDisplay:10.37,2013-03-04 21:03:00,
2013-03-04 13:08:00,66.8,33.5,29.93,SSW,200,10.4,10.4,29,0.00,OVC,,0.00,WeatherDisplay:10.37,2013-03-04 21:08:00,
2013-03-04 13:13:00,66.6,33.3,29.93,SE,136,8.1,8.1,29,0.00,OVC,,0.00,WeatherDisplay:10.37,2013-03-04 21:13:00,
2013-03-04 13:18:00,66.9,33.6,29.93,South,178,4.6,4.6,29,0.00,OVC,,0.00,WeatherDisplay:10.37,2013-03-04 21:18:00,
2013-03-04 13:24:00,66.7,34.3,29.92,SE,124,11.5,11.5,30,0.00,OVC,,0.00,WeatherDisplay:10.37,2013-03-04 21:24:00,
2013-03-04 13:29:00,66.6,33.3,29.92,ENE,74,7.0,7.0,29,0.00,OVC,,0.00,WeatherDisplay:10.37,2013-03-04 21:29:00,
2013-03-04 13:34:00,67.3,33.9,29.92,ENE,76,8.0,8.0,29,0.00,OVC,,0.00,WeatherDisplay:10.37,2013-03-04 21:34:00,
2013-03-04 13:39:00,67.4,34.0,29.92,SSE,152,6.0,6.0,29,0.00,OVC,,0.00,WeatherDisplay:10.37,2013-03-04 21:39:00,
2013-03-04 13:44:00,67.7,33.4,29.92,SE,144,15.0,15.0,28,0.00,OVC,,0.00,WeatherDisplay:10.37,2013-03-04 21:44:00,
2013-03-04 13:49:00,67.4,34.0,29.92,South,179,10.4,10.4,29,0.00,OVC,,0.00,WeatherDisplay:10.37,2013-03-04 21:49:00,
2013-03-04 13:55:00,67.5,33.2,29.92,SSW,194,6.9,6.9,28,0.00,OVC,,0.00,WeatherDisplay:10.37,2013-03-04 21:55:00,
2013-03-04 14:00:00,67.9,33.6,29.92,SSW,196,6.0,6.0,28,0.00,OVC,,0.00,WeatherDisplay:10.37,2013-03-04 22:00:00,
2013-03-04 14:05:00,68.2,34.7,29.92,East,97,11.5,11.5,29,0.00,OVC,,0.00,WeatherDisplay:10.37,2013-03-04 22:05:00,
2013-03-04 14:10:00,67.6,34.2,29.92,ESE,113,4.6,4.6,29,0.00,OVC,,0.00,WeatherDisplay:10.37,2013-03-04 22:10:00,
2013-03-04 14:15:00,68.8,34.3,29.91,ENE,72,12.7,12.7,28,0.00,OVC,,0.00,WeatherDisplay:10.37,2013-03-04 22:15:00,
2013-03-04 14:21:00,68.4,34.0,29.92,ENE,63,11.5,11.5,28,0.00,OVC,,0.00,WeatherDisplay:10.37,2013-03-04 22:21:00,
2013-03-04 14:26:00,68.4,34.0,29.91,ENE,61,10.0,10.0,28,0.00,OVC,,0.00,WeatherDisplay:10.37,2013-03-04 22:26:00,
2013-03-04 14:31:00,69.1,33.7,29.91,NE,39,9.2,9.2,27,0.00,OVC,,0.00,WeatherDisplay:10.37,2013-03-04 22:31:00,
2013-03-04 14:36:00,69.7,34.2,29.91,NE,51,6.9,6.9,27,0.00,OVC,,0.00,WeatherDisplay:10.37,2013-03-04 22:36:00,
2013-03-04 14:41:00,69.7,33.3,29.91,NE,50,9.2,9.2,26,0.00,OVC,,0.00,WeatherDisplay:10.37,2013-03-04 22:41:00,
2013-03-04 14:46:00,70.0,33.5,29.91,NNE,20,5.0,5.0,26,0.00,OVC,,0.00,WeatherDisplay:10.37,2013-03-04 22:46:00,
2013-03-04 14:52:00,70.8,33.2,29.91,SW,220,3.5,3.5,25,0.00,OVC,,0.00,WeatherDisplay:10.37,2013-03-04 22:52:00,
2013-03-04 14:57:00,70.6,32.0,29.91,ESE,106,11.5,11.5,24,0.00,OVC,,0.00,WeatherDisplay:10.37,2013-03-04 22:57:00,
2013-03-04 15:02:00,69.6,33.1,29.91,SSE,156,2.0,12.0,26,0.00,CLR,,0.00,WeatherDisplay:10.37,2013-03-04 23:02:00,
2013-03-04 15:07:00,68.9,32.6,29.91,South,170,6.0,12.0,26,0.00,CLR,,0.00,WeatherDisplay:10.37,2013-03-04 23:07:00,
2013-03-04 15:12:00,69.1,32.8,29.91,South,183,3.0,10.0,26,0.00,CLR,,0.00,WeatherDisplay:10.37,2013-03-04 23:12:00,
2013-03-04 15:17:00,69.3,32.9,29.91,South,187,7.0,9.0,26,0.00,CLR,,0.00,WeatherDisplay:10.37,2013-03-04 23:17:00,
2013-03-04 15:22:00,69.2,32.8,29.91,South,169,2.0,9.0,26,0.00,CLR,,0.00,WeatherDisplay:10.37,2013-03-04 23:22:00,
2013-03-04 15:27:00,69.8,31.4,29.91,East,88,8.1,8.1,24,0.00,OVC,,0.00,WeatherDisplay:10.37,2013-03-04 23:27:00,
2013-03-04 15:33:00,69.5,32.1,29.91,NE,51,6.9,6.9,25,0.00,OVC,,0.00,WeatherDisplay:10.37,2013-03-04 23:33:00,
2013-03-04 15:38:00,70.2,31.7,29.91,East,87,10.4,10.4,24,0.00,OVC,,0.00,WeatherDisplay:10.37,2013-03-04 23:38:00,
2013-03-04 15:43:00,69.5,32.1,29.91,ESE,122,11.5,11.5,25,0.00,OVC,,0.00,WeatherDisplay:10.37,2013-03-04 23:43:00,
2013-03-04 15:48:00,69.0,31.7,29.91,East,99,9.2,9.2,25,0.00,OVC,,0.00,WeatherDisplay:10.37,2013-03-04 23:48:00,
2013-03-04 15:53:00,68.9,32.6,29.91,ESE,119,8.1,8.1,26,0.00,OVC,,0.00,WeatherDisplay:10.37,2013-03-04 23:53:00,
2013-03-04 15:58:00,69.3,31.9,29.91,SE,141,8.1,8.1,25,0.00,OVC,,0.00,WeatherDisplay:10.37,2013-03-04 23:58:00,
2013-03-04 16:04:00,69.4,32.0,29.91,SSE,150,6.9,6.9,25,0.00,OVC,,0.00,WeatherDisplay:10.37,2013-03-05 00:04:00,
2013-03-04 16:09:00,69.6,32.2,29.91,West,271,2.3,2.3,25,0.00,OVC,,0.00,WeatherDisplay:10.37,2013-03-05 00:09:00,
2013-03-04 16:14:00,69.8,31.4,29.91,SE,146,9.2,9.2,24,0.00,OVC,,0.00,WeatherDisplay:10.37,2013-03-05 00:14:00,
2013-03-04 16:19:00,69.6,31.2,29.91,SSW,200,4.6,4.6,24,0.00,OVC,,0.00,WeatherDisplay:10.37,2013-03-05 00:19:00,
2013-03-04 16:24:00,70.1,31.6,29.91,SE,139,4.6,4.6,24,0.00,OVC,,0.00,WeatherDisplay:10.37,2013-03-05 00:24:00,
2013-03-04 16:29:00,69.8,31.4,29.91,SW,222,5.8,5.8,24,0.00,OVC,,0.00,WeatherDisplay:10.37,2013-03-05 00:29:00,
2013-03-04 16:34:00,69.9,31.4,29.91,SW,222,2.3,2.3,24,0.00,OVC,,0.00,WeatherDisplay:10.37,2013-03-05 00:34:00,
2013-03-04 16:40:00,69.5,32.1,29.91,East,94,6.9,6.9,25,0.00,OVC,,0.00,WeatherDisplay:10.37,2013-03-05 00:40:00,
2013-03-04 16:45:00,69.0,31.7,29.92,East,92,6.9,6.9,25,0.00,OVC,,0.00,WeatherDisplay:10.37,2013-03-05 00:45:00,
2013-03-04 16:50:00,68.8,31.5,29.91,ESE,106,10.0,10.0,25,0.00,OVC,,0.00,WeatherDisplay:10.37,2013-03-05 00:50:00,
2013-03-04 16:55:00,68.7,31.4,29.92,SE,132,4.6,4.6,25,0.00,OVC,,0.00,WeatherDisplay:10.37,2013-03-05 00:55:00,
2013-03-04 17:00:00,68.7,30.4,29.92,East,100,7.0,7.0,24,0.00,OVC,,0.00,WeatherDisplay:10.37,2013-03-05 01:00:00,
2013-03-04 17:05:00,68.8,30.5,29.92,ENE,59,3.5,3.5,24,0.00,OVC,,0.00,WeatherDisplay:10.37,2013-03-05 01:05:00,
2013-03-04 17:11:00,68.8,30.5,29.92,ENE,73,3.5,3.5,24,0.00,OVC,,0.00,WeatherDisplay:10.37,2013-03-05 01:11:00,
2013-03-04 17:16:00,68.7,30.4,29.92,ENE,73,4.0,4.0,24,0.00,OVC,,0.00,WeatherDisplay:10.37,2013-03-05 01:16:00,
2013-03-04 17:21:00,68.5,30.3,29.92,ESE,112,3.5,3.5,24,0.00,OVC,,0.00,WeatherDisplay:10.37,2013-03-05 01:21:00,
2013-03-04 17:26:00,68.3,30.1,29.92,ESE,112,5.0,5.0,24,0.00,OVC,,0.00,WeatherDisplay:10.37,2013-03-05 01:26:00,
2013-03-04 17:31:00,68.2,30.0,29.92,ESE,112,4.6,4.6,24,0.00,OVC,,0.00,WeatherDisplay:10.37,2013-03-05 01:31:00,
2013-03-04 17:36:00,68.0,29.8,29.92,ESE,112,4.0,4.0,24,0.00,OVC,,0.00,WeatherDisplay:10.37,2013-03-05 01:36:00,
2013-03-04 17:41:00,67.7,29.6,29.92,ESE,112,4.0,4.0,24,0.00,OVC,,0.00,WeatherDisplay:10.37,2013-03-05 01:41:00,
2013-03-04 17:46:00,66.7,35.1,29.92,SE,130,10.4,10.4,31,0.00,OVC,,0.00,WeatherDisplay:10.37,2013-03-05 01:46:00,
2013-03-04 17:51:00,64.6,40.4,29.93,SSE,166,11.5,11.5,41,0.00,OVC,,0.00,WeatherDisplay:10.37,2013-03-05 01:51:00,
2013-03-04 17:56:00,63.5,41.2,29.93,South,173,12.7,12.7,44,0.00,OVC,,0.00,WeatherDisplay:10.37,2013-03-05 01:56:00,
2013-03-04 18:01:00,63.3,41.6,29.93,South,171,11.5,11.5,45,0.00,OVC,,0.00,WeatherDisplay:10.37,2013-03-05 02:01:00,
2013-03-04 18:07:00,62.3,41.2,29.93,SSE,159,11.0,11.0,46,0.00,OVC,,0.00,WeatherDisplay:10.37,2013-03-05 02:07:00,
2013-03-04 18:12:00,61.8,41.9,29.93,SSE,150,7.0,7.0,48,0.00,OVC,,0.00,WeatherDisplay:10.37,2013-03-05 02:12:00,
2013-03-04 18:17:00,60.9,41.1,29.93,South,181,10.0,10.0,48,0.00,OVC,,0.00,WeatherDisplay:10.37,2013-03-05 02:17:00,
2013-03-04 18:22:00,60.8,41.0,29.93,SSE,153,6.9,6.9,48,0.00,OVC,,0.00,WeatherDisplay:10.37,2013-03-05 02:22:00,
2013-03-04 18:27:00,60.2,41.0,29.93,SSE,151,8.0,10.0,49,0.00,CLR,,0.00,WeatherDisplay:10.37,2013-03-05 02:27:00,
2013-03-04 18:32:00,59.8,40.5,29.93,SSE,149,6.0,9.0,49,0.00,CLR,,0.00,WeatherDisplay:10.37,2013-03-05 02:32:00,
2013-03-04 18:37:00,58.9,40.7,29.93,SSE,152,7.0,9.0,51,0.00,CLR,,0.00,WeatherDisplay:10.37,2013-03-05 02:37:00,
2013-03-04 18:42:00,58.5,40.9,29.93,SSE,151,8.0,10.0,52,0.00,CLR,,0.00,WeatherDisplay:10.37,2013-03-05 02:42:00,
2013-03-04 18:47:00,57.8,40.3,29.93,SSE,152,7.0,9.0,52,0.00,CLR,,0.00,WeatherDisplay:10.37,2013-03-05 02:47:00,
2013-03-04 18:52:00,57.4,40.4,29.93,SSE,157,7.0,9.0,53,0.00,CLR,,0.00,WeatherDisplay:10.37,2013-03-05 02:52:00,
2013-03-04 18:57:00,57.0,40.5,29.94,SSE,168,7.0,8.0,54,0.00,CLR,,0.00,WeatherDisplay:10.37,2013-03-05 02:57:00,
2013-03-04 19:02:00,56.6,40.1,29.94,SSW,194,3.0,6.0,54,0.00,CLR,,0.00,WeatherDisplay:10.37,2013-03-05 03:02:00,
2013-03-04 19:07:00,56.6,39.7,29.94,WSW,245,3.0,5.0,53,0.00,CLR,,0.00,WeatherDisplay:10.37,2013-03-05 03:07:00,
2013-03-04 19:12:00,57.1,40.6,29.94,WSW,255,6.0,8.0,54,0.00,CLR,,0.00,WeatherDisplay:10.37,2013-03-05 03:12:00,
2013-03-04 19:17:00,57.4,40.4,29.94,WSW,242,6.0,8.0,53,0.00,CLR,,0.00,WeatherDisplay:10.37,2013-03-05 03:17:00,
2013-03-04 19:22:00,56.8,39.8,29.94,WSW,243,5.0,6.0,53,0.00,CLR,,0.00,WeatherDisplay:10.37,2013-03-05 03:22:00,
2013-03-04 19:27:00,57.0,40.5,29.94,WSW,241,7.0,8.0,54,0.00,CLR,,0.00,WeatherDisplay:10.37,2013-03-05 03:27:00,
2013-03-04 19:32:00,56.6,39.7,29.94,SW,221,7.0,8.0,53,0.00,CLR,,0.00,WeatherDisplay:10.37,2013-03-05 03:32:00,
2013-03-04 19:37:00,56.3,40.4,29.94,SSW,210,10.0,12.0,55,0.00,CLR,,0.00,WeatherDisplay:10.37,2013-03-05 03:37:00,
2013-03-04 19:42:00,55.8,40.3,29.94,SW,225,10.4,10.4,56,0.00,OVC,,0.00,WeatherDisplay:10.37,2013-03-05 03:42:00,
2013-03-04 19:47:00,55.1,40.1,29.94,SW,219,7.0,9.0,57,0.00,CLR,,0.00,WeatherDisplay:10.37,2013-03-05 03:47:00,
2013-03-04 19:52:00,54.6,39.6,29.94,SSW,208,7.0,7.0,57,0.00,CLR,,0.00,WeatherDisplay:10.37,2013-03-05 03:52:00,
2013-03-04 19:57:00,53.7,39.7,29.94,SSW,198,7.0,9.0,59,0.00,CLR,,0.00,WeatherDisplay:10.37,2013-03-05 03:57:00,
2013-03-04 20:02:00,52.2,38.3,29.94,SSW,206,6.0,8.0,59,0.00,CLR,,0.00,WeatherDisplay:10.37,2013-03-05 04:02:00,
2013-03-04 20:07:00,52.1,39.5,29.94,SSW,211,7.0,7.0,62,0.00,CLR,,0.00,WeatherDisplay:10.37,2013-03-05 04:07:00,
2013-03-04 20:12:00,52.2,38.3,29.94,SSW,209,5.0,7.0,59,0.00,CLR,,0.00,WeatherDisplay:10.37,2013-03-05 04:12:00,
2013-03-04 20:17:00,52.0,39.3,29.94,SW,220,7.0,8.0,62,0.00,CLR,,0.00,WeatherDisplay:10.37,2013-03-05 04:17:00,
2013-03-04 20:22:00,51.9,38.0,29.94,SW,230,6.0,6.0,59,0.00,CLR,,0.00,WeatherDisplay:10.37,2013-03-05 04:22:00,
2013-03-04 20:27:00,50.6,36.4,29.95,SW,226,5.0,6.0,58,0.00,CLR,,0.00,WeatherDisplay:10.37,2013-03-05 04:27:00,
2013-03-04 20:32:00,49.6,36.7,29.95,SSW,212,6.0,7.0,61,0.00,CLR,,0.00,WeatherDisplay:10.37,2013-03-05 04:32:00,
2013-03-04 20:37:00,49.4,37.3,29.95,SSW,204,7.0,7.0,63,0.00,OVC,,0.00,WeatherDisplay:10.37,2013-03-05 04:37:00,
2013-03-04 20:42:00,49.5,37.4,29.95,South,190,9.2,9.2,63,0.00,OVC,,0.00,WeatherDisplay:10.37,2013-03-05 04:42:00,
2013-03-04 20:47:00,48.9,37.3,29.96,SSW,193,11.5,11.5,64,0.00,OVC,,0.00,WeatherDisplay:10.37,2013-03-05 04:47:00,
2013-03-04 20:53:00,49.0,37.3,29.96,SSW,192,12.7,12.7,64,0.00,OVC,,0.00,WeatherDisplay:10.37,2013-03-05 04:53:00,
2013-03-04 20:58:00,48.8,37.2,29.96,SSW,207,9.2,9.2,64,0.00,OVC,,0.00,WeatherDisplay:10.37,2013-03-05 04:58:00,
2013-03-04 21:00:00,48.8,37.2,29.96,SSW,205,9.2,9.2,64,0.00,OVC,,0.00,WeatherDisplay:10.37,2013-03-05 05:00:00,
2013-03-04 21:01:00,48.8,36.8,29.96,SSW,202,9.2,9.2,63,0.00,OVC,,0.00,WeatherDisplay:10.37,2013-03-05 05:01:00,
2013-03-04 21:03:00,48.7,36.7,29.96,SSW,197,8.1,8.1,63,0.00,OVC,,0.00,WeatherDisplay:10.37,2013-03-05 05:03:00,
2013-03-04 21:08:00,48.3,35.9,29.97,SW,226,9.2,9.2,62,0.00,OVC,,0.00,WeatherDisplay:10.37,2013-03-05 05:08:00,
2013-03-04 21:13:00,48.1,35.7,29.97,SW,232,8.1,8.1,62,0.00,OVC,,0.00,WeatherDisplay:10.37,2013-03-05 05:13:00,
2013-03-04 21:19:00,48.0,35.2,29.97,WSW,237,9.2,9.2,61,0.00,OVC,,0.00,WeatherDisplay:10.37,2013-03-05 05:19:00,
2013-03-04 21:24:00,47.5,34.3,29.97,WSW,244,8.1,8.1,60,0.00,OVC,,0.00,WeatherDisplay:10.37,2013-03-05 05:24:00,
2013-03-04 21:29:00,47.4,33.8,29.97,WSW,252,9.2,9.2,59,0.00,OVC,,0.00,WeatherDisplay:10.37,2013-03-05 05:29:00,
2013-03-04 21:34:00,47.4,33.4,29.97,WSW,252,8.1,8.1,58,0.00,OVC,,0.00,WeatherDisplay:10.37,2013-03-05 05:34:00,
2013-03-04 21:39:00,47.6,33.1,29.97,WSW,245,8.1,8.1,57,0.00,OVC,,0.00,WeatherDisplay:10.37,2013-03-05 05:39:00,
2013-03-04 21:44:00,47.5,32.6,29.97,WSW,244,7.0,7.0,56,0.00,CLR,,0.00,WeatherDisplay:10.37,2013-03-05 05:44:00,
2013-03-04 21:49:00,47.6,32.2,29.97,WSW,239,8.1,8.1,55,0.00,CLR,,0.00,WeatherDisplay:10.37,2013-03-05 05:49:00,
2013-03-04 21:54:00,47.0,31.2,29.97,SW,236,9.2,9.2,54,0.00,OVC,,0.00,WeatherDisplay:10.37,2013-03-05 05:54:00,
2013-03-04 21:59:00,46.4,31.1,29.97,SW,231,8.1,8.1,55,0.00,OVC,,0.00,WeatherDisplay:10.37,2013-03-05 05:59:00,
2013-03-04 22:04:00,45.8,31.0,29.97,SW,223,8.1,8.1,56,0.00,OVC,,0.00,WeatherDisplay:10.37,2013-03-05 06:04:00,
2013-03-04 22:10:00,45.8,31.0,29.97,SW,224,8.1,8.1,56,0.00,OVC,,0.00,WeatherDisplay:10.37,2013-03-05 06:10:00,
2013-03-04 22:15:00,45.9,31.1,29.98,WSW,238,8.1,8.1,56,0.00,OVC,,0.00,WeatherDisplay:10.37,2013-03-05 06:15:00,
2013-03-04 22:20:00,46.2,31.8,29.98,WSW,238,6.0,6.0,57,0.00,OVC,,0.00,WeatherDisplay:10.37,2013-03-05 06:20:00,
2013-03-04 22:25:00,47.5,32.1,29.98,WSW,242,8.1,8.1,55,0.00,OVC,,0.00,WeatherDisplay:10.37,2013-03-05 06:25:00,
2013-03-04 22:30:00,46.0,30.3,29.98,South,188,8.1,8.1,54,0.00,OVC,,0.00,WeatherDisplay:10.37,2013-03-05 06:30:00,
2013-03-04 22:35:00,45.6,31.7,29.98,SSW,199,8.1,8.1,58,0.00,OVC,,0.00,WeatherDisplay:10.37,2013-03-05 06:35:00,
2013-03-04 22:40:00,46.6,32.6,29.98,SW,223,9.2,9.2,58,0.00,OVC,,0.00,WeatherDisplay:10.37,2013-03-05 06:40:00,
2013-03-04 22:45:00,46.4,32.8,29.98,South,184,8.1,8.1,59,0.00,OVC,,0.00,WeatherDisplay:10.37,2013-03-05 06:45:00,
2013-03-04 22:50:00,44.7,32.9,29.98,South,184,7.0,7.0,63,0.00,OVC,,0.00,WeatherDisplay:10.37,2013-03-05 06:50:00,
2013-03-04 22:55:00,44.6,34.7,29.98,SSW,201,7.0,7.0,68,0.00,OVC,,0.00,WeatherDisplay:10.37,2013-03-05 06:55:00,
2013-03-04 23:00:00,44.8,35.2,29.98,SSW,200,7.0,7.0,69,0.00,OVC,,0.00,WeatherDisplay:10.37,2013-03-05 07:00:00,
2013-03-04 23:05:00,45.1,36.3,29.98,SSW,198,6.9,6.9,71,0.00,OVC,,0.00,WeatherDisplay:10.37,2013-03-05 07:05:00,
2013-03-04 23:10:00,45.1,36.6,29.98,SSW,209,8.1,8.1,72,0.00,OVC,,0.00,WeatherDisplay:10.37,2013-03-05 07:10:00,
2013-03-04 23:16:00,45.4,36.9,29.98,SW,216,7.0,7.0,72,0.00,OVC,,0.00,WeatherDisplay:10.37,2013-03-05 07:16:00,
2013-03-04 23:21:00,45.1,36.3,29.98,SW,234,7.0,7.0,71,0.00,OVC,,0.00,WeatherDisplay:10.37,2013-03-05 07:21:00,
2013-03-04 23:26:00,44.8,35.2,29.98,WSW,257,5.0,5.0,69,0.00,OVC,,0.00,WeatherDisplay:10.37,2013-03-05 07:26:00,
2013-03-04 23:31:00,44.4,34.9,29.98,WSW,248,7.0,7.0,69,0.00,OVC,,0.00,WeatherDisplay:10.37,2013-03-05 07:31:00,
2013-03-04 23:36:00,44.7,34.8,29.98,WSW,237,6.9,6.9,68,0.00,OVC,,0.00,WeatherDisplay:10.37,2013-03-05 07:36:00,
2013-03-04 23:41:00,44.1,33.5,29.98,WSW,240,6.0,6.0,66,0.00,OVC,,0.00,WeatherDisplay:10.37,2013-03-05 07:41:00,
2013-03-04 23:46:00,43.7,33.1,29.99,SW,231,8.1,8.1,66,0.00,OVC,,0.00,WeatherDisplay:10.37,2013-03-05 07:46:00,
2013-03-04 23:51:00,44.0,33.4,29.99,SW,236,7.0,7.0,66,0.00,OVC,,0.00,WeatherDisplay:10.37,2013-03-05 07:51:00,
2013-03-04 23:56:00,43.2,33.0,29.99,SW,225,7.0,7.0,67,0.00,OVC,,0.00,WeatherDisplay:10.37,2013-03-05 07:56:00,